Погода METAR - Абакан

Код аэропорта ICAO:
Кемерово, Абакан, Красноярск, Новосибирск
Код METAR: UNAA 232230Z 00000MPS 7000 NSC M13/M15 Q1027 R02/090065 NOSIG RMK QFE748
TAF UNAA 231952Z 2321/2421 33002MPS 6000 SCT022 
     TEMPO 2400/2405 0900 FZFG FU SCT016 
     FM240500 01003MPS 6000 NSC
       

Погода - Сейчас

Время: 2020-02-24 05:30, местное
Направление ветра: Штиль
Скорость ветра: 0 м/с
Видимость:
Температура: -13°C
Точка росы: -15°C
Атмосферное давление: 1027 гПа

Архив погоды

Время, местное Направление Скорость, м/с Температура, °C Точка росы, °C Давление, гПа
2020-02-24 05:30 Штиль 0 -13 -15 1027
2020-02-22 04:00 ЮЮЗ (200°) 2 0 -6 1016
2020-02-21 23:00 Ю (180°) 4 0 -5 1018
2020-02-21 18:00 ЮЗ (230°) 5 0 -4 1020
2020-02-21 09:30 ЮЮЗ (200°) 6 -1 -6 1024
2020-02-18 14:00 Штиль 0 0 1700
2020-02-18 08:00 Штиль 0 0 2000
2020-02-17 17:30 С (350°) 2 -10 -12 1033
2020-02-17 15:00 ССЗ (340°) 2 -8 -12 1033
2020-02-17 05:00 Штиль 0 -18 -20 1036
2020-02-15 21:30 ЗЮЗ (260°) 2 -14 -15 1035
2020-02-15 14:00 Штиль 0 -8 -13 1037
2020-02-14 14:00 Штиль 0 -6 -13 1037
2020-02-11 12:30 ССЗ (340°) 4 -10 -17 1020
2020-02-11 05:30 С (350°) 4 -10 -16 1017
2020-02-10 15:00 ССЗ (340°) 5 1 -2 1002
2020-02-09 10:30 Переменный 1 3 -6 1003
2020-02-09 09:00 ЮЗ (220°) 4 0 -7 1004
2020-02-08 00:00 ЮЮЗ (200°) 1 -3 -4 1022
2020-02-07 08:30 ЗСЗ (290°) 2 -12 -13 1023
2020-02-07 02:00 ЮВ (120°) 1 0 0
2020-02-06 21:30 ЮЮВ (160°) 1 0 600
2020-02-05 19:30 ЗСЗ (290°) 1 -12 -13 1025
2020-02-01 06:30 Штиль 0 -26 -28 1038
2020-01-30 19:00 ЮЮЗ (200°) 2 -16 -21 1037
2020-01-30 16:00 ЮЮЗ (200°) 4 -11 -19 1037
2020-01-28 02:00 Ю (170°) 2 -15 -17 1018
2020-01-24 19:00 ЮЗ (220°) 5 0 -6 1014
2020-01-24 18:00 ЮЗ (210°) 3 -2 -6 1015
2020-01-24 06:30 Ю (190°) 2 -10 -12 1018
2020-01-23 13:30 ЗСЗ (290°) 2 0 1900
2020-01-23 01:30 Штиль 0 -18 -20 1024
2020-01-16 21:30 Штиль 0 0 0
2020-01-09 07:30 Штиль 0 0 0
2020-01-08 14:30 Штиль 0 0 1900
2020-01-07 01:30 ЮЮВ (160°) 1 -18 -20 1026
2020-01-05 20:00 Штиль 0 0 0
2020-01-04 21:00 ЮЗ (220°) 5 -5 -8 1025
2020-01-03 05:00 ЮЮЗ (200°) 5 -2 -7 1022
2020-01-01 07:00 ВСВ (60°) 1 0 1700
2019-12-29 18:30 Штиль 0 -29 -33 1029
2019-12-25 07:00 ЮЮЗ (200°) 6 -7 -12 1022
2019-12-24 22:30 Штиль 0 -15 -17 1023
2019-12-24 21:00 Штиль 0 -16 -17 1024
2019-12-23 05:30 Штиль 0 0 0
2019-12-21 16:00 СЗ (320°) 1 -8 -10 1017
2019-12-20 01:30 Штиль 0 0 0
2019-12-19 05:00 Ю (180°) 2 -16 -18 1027